createdAt,value
2019-01-21T00:00:22.585Z,42.13
2019-01-21T00:02:52.230Z,42.23
2019-01-21T00:05:21.625Z,42.57
2019-01-21T00:07:51.283Z,43.17
2019-01-21T00:10:20.770Z,43.10
2019-01-21T00:12:50.337Z,42.67
2019-01-21T00:15:19.777Z,40.27
2019-01-21T00:17:49.225Z,38.43
2019-01-21T00:20:18.613Z,39.80
2019-01-21T00:22:48.042Z,39.87
2019-01-21T00:25:17.517Z,38.37
2019-01-21T00:27:48.127Z,37.37
2019-01-21T00:30:17.659Z,36.67
2019-01-21T00:32:47.173Z,37.90
2019-01-21T00:35:16.596Z,37.17
2019-01-21T00:37:46.048Z,38.47
2019-01-21T00:40:17.399Z,38.87
2019-01-21T00:42:46.931Z,36.90
2019-01-21T00:45:16.485Z,37.70
2019-01-21T00:47:45.991Z,38.60
2019-01-21T00:50:15.437Z,40.43
2019-01-21T00:52:44.975Z,38.53
2019-01-21T00:55:14.743Z,35.00
2019-01-21T00:57:44.237Z,38.80
2019-01-21T01:00:24.684Z,38.47
2019-01-21T01:02:54.343Z,39.60
2019-01-21T01:05:24.085Z,39.80
2019-01-21T01:07:53.671Z,41.07
2019-01-21T01:10:23.182Z,40.47
2019-01-21T01:12:52.662Z,40.37
2019-01-21T01:15:22.066Z,41.07
2019-01-21T01:17:51.512Z,39.97
2019-01-21T01:20:21.024Z,39.77
2019-01-21T01:22:50.427Z,40.53
2019-01-21T01:25:19.989Z,40.47
2019-01-21T01:27:49.519Z,41.13
2019-01-21T01:30:19.108Z,41.27
2019-01-21T01:32:48.607Z,39.50
2019-01-21T01:35:18.186Z,40.20
2019-01-21T01:37:47.706Z,39.20
2019-01-21T01:40:17.955Z,40.07
2019-01-21T01:42:47.560Z,38.70
2019-01-21T01:45:22.102Z,39.30
2019-01-21T01:47:54.894Z,38.80
2019-01-21T01:50:24.361Z,39.40
2019-01-21T01:52:54.014Z,40.80
2019-01-21T01:55:24.260Z,39.10
2019-01-21T01:57:56.955Z,40.47
2019-01-21T02:00:26.571Z,39.93
2019-01-21T02:02:56.207Z,40.10
2019-01-21T02:05:25.714Z,39.27
2019-01-21T02:07:55.203Z,38.97
2019-01-21T02:10:24.831Z,39.57
2019-01-21T02:12:54.379Z,39.40
2019-01-21T02:15:23.877Z,39.87
2019-01-21T02:17:53.436Z,38.63
2019-01-21T02:20:23.077Z,40.10
2019-01-21T02:22:54.777Z,38.63
2019-01-21T02:25:29.949Z,40.03
2019-01-21T02:28:17.405Z,39.50
2019-01-21T02:31:11.145Z,40.83
2019-01-21T02:33:59.755Z,39.50
2019-01-21T02:36:35.020Z,38.80
2019-01-21T02:39:18.598Z,38.63
2019-01-21T02:41:57.734Z,40.00
2019-01-21T02:44:48.561Z,36.27
2019-01-21T02:47:23.876Z,36.37
2019-01-21T02:50:29.474Z,38.40
2019-01-21T02:53:07.639Z,36.70
2019-01-21T02:58:41.735Z,37.37
2019-01-21T03:01:36.731Z,37.10
2019-01-21T03:04:25.696Z,35.63
2019-01-21T03:07:00.835Z,37.27
2019-01-21T03:10:00.246Z,36.33
2019-01-21T03:12:50.661Z,34.97
2019-01-21T03:15:31.778Z,36.53
2019-01-21T03:18:19.234Z,38.10
2019-01-21T03:20:51.751Z,37.97
2019-01-21T03:23:55.670Z,36.53
2019-01-21T03:26:43.341Z,39.87
2019-01-21T03:29:21.402Z,38.63
2019-01-21T03:32:15.979Z,40.50
2019-01-21T03:35:20.107Z,38.47
2019-01-21T03:38:09.273Z,38.53
2019-01-21T03:40:53.776Z,39.50
2019-01-21T03:43:44.411Z,40.87
2019-01-21T03:46:28.950Z,40.37
2019-01-21T03:49:04.121Z,41.83
2019-01-21T03:51:45.305Z,40.30
2019-01-21T03:54:18.084Z,39.47
2019-01-21T03:56:50.434Z,40.97
2019-01-21T03:59:25.833Z,42.13
2019-01-21T04:02:25.158Z,41.60
2019-01-21T04:05:18.957Z,41.53
2019-01-21T04:07:57.049Z,39.50
2019-01-21T04:10:52.134Z,41.13
2019-01-21T04:13:33.581Z,41.67
2019-01-21T04:16:17.974Z,38.57
2019-01-21T04:18:53.629Z,41.50
2019-01-21T04:21:41.060Z,39.33
2019-01-21T04:24:14.026Z,39.40
2019-01-21T04:26:49.377Z,40.37
2019-01-21T04:29:27.820Z,41.87
2019-01-21T04:32:12.131Z,39.37
2019-01-21T04:34:44.639Z,42.63
2019-01-21T04:37:45.545Z,41.70
2019-01-21T04:40:26.936Z,40.33
2019-01-21T04:42:59.523Z,40.43
2019-01-21T04:45:40.868Z,42.17
2019-01-21T04:48:41.948Z,41.33
2019-01-21T04:51:29.093Z,40.97
2019-01-21T04:54:22.672Z,40.57
2019-01-21T04:57:11.488Z,40.87
2019-01-21T04:59:52.727Z,41.37
2019-01-21T05:02:44.424Z,39.60
2019-01-21T05:05:28.971Z,40.70
2019-01-21T05:08:26.760Z,40.87
2019-01-21T05:11:23.488Z,40.70
2019-01-21T05:14:12.264Z,40.27
2019-01-21T05:16:47.808Z,41.30
2019-01-21T05:19:35.117Z,41.10
2019-01-21T05:22:27.172Z,39.13
2019-01-21T05:25:23.424Z,40.80
2019-01-21T05:28:01.779Z,41.27
2019-01-21T05:30:40.063Z,40.60
2019-01-21T05:33:33.463Z,42.97
2019-01-21T05:36:08.696Z,41.60
2019-01-21T05:39:14.060Z,40.93
2019-01-21T05:42:22.548Z,42.20
2019-01-21T05:45:09.833Z,42.20
2019-01-21T05:48:01.511Z,42.20
2019-01-21T05:50:36.665Z,40.90
2019-01-21T05:53:27.138Z,42.43
2019-01-21T05:56:14.320Z,41.97
2019-01-21T05:58:49.709Z,41.47
2019-01-21T06:01:53.805Z,38.87
2019-01-21T06:04:51.542Z,39.37
2019-01-21T06:07:28.338Z,39.63
2019-01-21T06:10:01.067Z,40.23
2019-01-21T06:12:39.314Z,44.30
2019-01-21T06:15:29.686Z,40.10
2019-01-21T06:18:05.051Z,39.97
2019-01-21T06:20:55.680Z,41.93
2019-01-21T06:23:39.907Z,40.53
2019-01-21T06:26:31.832Z,41.30
2019-01-21T06:29:04.478Z,42.40
2019-01-21T06:31:39.855Z,41.40
2019-01-21T06:34:28.616Z,42.20
2019-01-21T06:37:03.942Z,38.87
2019-01-21T06:39:57.468Z,41.17
2019-01-21T06:42:48.764Z,41.20
2019-01-21T06:45:42.091Z,40.87
2019-01-21T06:48:20.478Z,43.03
2019-01-21T06:51:25.751Z,43.47
2019-01-21T06:54:12.961Z,40.43
2019-01-21T06:57:13.721Z,42.23
2019-01-21T06:59:55.160Z,43.27
2019-01-21T07:02:39.802Z,41.87
2019-01-21T07:05:29.962Z,42.87
2019-01-21T07:08:02.522Z,41.10
2019-01-21T07:10:46.987Z,42.00
2019-01-21T07:13:38.442Z,43.27
2019-01-21T07:16:13.883Z,41.97
2019-01-21T07:18:52.150Z,41.20
2019-01-21T07:21:39.267Z,41.33
2019-01-21T07:24:14.238Z,40.37
2019-01-21T07:27:05.774Z,43.57
2019-01-21T07:29:38.368Z,41.10
2019-01-21T07:32:19.548Z,42.73
2019-01-21T07:35:09.974Z,41.43
2019-01-21T07:37:45.630Z,41.60
2019-01-21T07:40:45.205Z,43.40
2019-01-21T07:43:17.812Z,42.10
2019-01-21T07:45:50.403Z,44.07
2019-01-21T07:48:39.313Z,43.07
2019-01-21T07:51:41.654Z,44.07
2019-01-21T07:54:23.018Z,44.07
2019-01-21T07:57:13.667Z,42.60
2019-01-21T08:00:11.471Z,42.83
2019-01-21T08:02:58.788Z,41.60
2019-01-21T08:05:41.157Z,42.53
2019-01-21T08:08:19.166Z,41.70
2019-01-21T08:10:51.650Z,41.83
2019-01-21T08:13:40.703Z,40.87
2019-01-21T08:16:25.034Z,42.47
2019-01-21T08:19:09.185Z,42.30
2019-01-21T08:22:02.681Z,41.07
2019-01-21T08:24:53.200Z,39.90
2019-01-21T08:27:41.950Z,42.30
2019-01-21T08:30:23.147Z,42.47
2019-01-21T08:33:13.337Z,42.13
2019-01-21T08:35:48.450Z,42.87
2019-01-21T08:38:21.056Z,43.87
2019-01-21T08:40:53.534Z,44.37
2019-01-21T08:43:28.994Z,43.50
2019-01-21T08:46:21.426Z,46.27
2019-01-21T08:48:53.253Z,43.73
2019-01-21T08:51:46.317Z,44.03
2019-01-21T08:54:24.439Z,45.07
2019-01-21T08:57:02.732Z,43.13
2019-01-21T08:59:59.095Z,43.67
2019-01-21T09:02:43.415Z,44.67
2019-01-21T09:05:30.859Z,44.10
2019-01-21T09:08:14.855Z,42.77
2019-01-21T09:10:50.251Z,43.03
2019-01-21T09:13:31.833Z,45.67
2019-01-21T09:16:04.419Z,43.20
2019-01-21T09:18:51.917Z,44.73
2019-01-21T09:21:33.077Z,46.53
2019-01-21T09:24:21.708Z,45.47
2019-01-21T09:27:03.249Z,43.87
2019-01-21T09:29:44.676Z,44.87
2019-01-21T09:32:17.211Z,48.10
2019-01-21T09:34:52.825Z,46.90
2019-01-21T09:37:49.258Z,46.53
2019-01-21T09:40:24.589Z,46.63
2019-01-21T09:42:59.806Z,48.53
2019-01-21T09:45:37.782Z,46.87
2019-01-21T09:48:06.119Z,48.93
2019-01-21T09:50:36.065Z,49.87
2019-01-21T09:53:06.757Z,49.43
2019-01-21T09:55:38.657Z,51.10
2019-01-21T09:58:09.663Z,48.43
2019-01-21T10:00:39.203Z,51.23
2019-01-21T10:03:11.968Z,49.60
2019-01-21T10:05:44.563Z,51.57
2019-01-21T10:08:19.583Z,51.23
2019-01-21T10:11:03.478Z,51.23
2019-01-21T10:13:37.743Z,49.37
2019-01-21T10:16:24.919Z,49.80
2019-01-21T10:18:57.477Z,48.63
2019-01-21T10:21:32.919Z,50.93
2019-01-21T10:24:35.381Z,48.47
2019-01-21T10:27:07.986Z,47.90
2019-01-21T10:29:52.291Z,48.73
2019-01-21T10:32:27.715Z,49.83
2019-01-21T10:35:11.840Z,47.43
2019-01-21T10:37:47.265Z,47.93
2019-01-21T10:40:26.311Z,47.87
2019-01-21T10:42:58.913Z,48.70
2019-01-21T10:45:46.103Z,47.97
2019-01-21T10:48:38.019Z,50.53
2019-01-21T10:51:19.342Z,47.53
2019-01-21T10:54:12.893Z,51.53
2019-01-21T10:56:45.413Z,48.70
2019-01-21T10:59:17.889Z,48.23
2019-01-21T11:02:02.479Z,50.80
2019-01-21T11:04:51.223Z,49.03
2019-01-21T11:07:39.957Z,50.07
2019-01-21T11:10:18.278Z,48.57
2019-01-21T11:12:56.312Z,49.83
2019-01-21T11:15:46.715Z,47.67
2019-01-21T11:18:24.910Z,49.07
2019-01-21T11:21:06.392Z,49.53
2019-01-21T11:23:53.670Z,47.87
2019-01-21T11:26:38.040Z,45.87
2019-01-21T11:29:19.307Z,45.13
2019-01-21T11:31:57.541Z,43.97
2019-01-21T11:34:35.564Z,44.73
2019-01-21T11:37:24.641Z,44.47
2019-01-21T11:40:16.399Z,44.60
2019-01-21T11:43:15.742Z,43.53
2019-01-21T11:45:48.288Z,42.60
2019-01-21T11:48:26.703Z,44.87
2019-01-21T11:51:04.613Z,42.50
2019-01-21T11:53:40.075Z,44.43
2019-01-21T11:56:12.835Z,45.90
2019-01-21T11:58:50.903Z,41.33
2019-01-21T12:01:23.495Z,41.93
2019-01-21T12:04:14.963Z,42.60
2019-01-21T12:07:03.867Z,40.20
2019-01-21T12:09:45.055Z,39.57
2019-01-21T12:12:17.645Z,38.97
2019-01-21T12:15:01.897Z,39.30
2019-01-21T12:17:40.175Z,35.03
2019-01-21T12:20:27.643Z,33.20
2019-01-21T12:23:14.789Z,34.80
2019-01-21T12:25:52.908Z,36.47
2019-01-21T12:28:36.897Z,37.93
2019-01-21T12:31:09.489Z,37.07
2019-01-21T12:33:51.179Z,37.67
2019-01-21T12:36:26.423Z,36.57
2019-01-21T12:39:01.743Z,35.33
2019-01-21T12:41:39.936Z,35.97
2019-01-21T12:44:21.246Z,35.67
2019-01-21T12:46:53.774Z,34.13
2019-01-21T12:49:34.941Z,30.20
2019-01-21T12:52:19.537Z,34.43
2019-01-21T12:55:11.436Z,32.80
2019-01-21T12:58:01.707Z,32.87
2019-01-21T13:00:34.265Z,32.33
2019-01-21T13:03:25.778Z,30.53
2019-01-21T13:06:13.261Z,32.53
2019-01-21T13:09:09.685Z,32.60
2019-01-21T13:11:51.187Z,32.13
2019-01-21T13:14:41.777Z,31.20
2019-01-21T13:17:17.074Z,32.97
2019-01-21T13:19:52.613Z,30.07
2019-01-21T13:22:30.809Z,32.30
2019-01-21T13:25:19.958Z,31.33
2019-01-21T13:28:12.055Z,31.63
2019-01-21T13:31:15.883Z,30.83
2019-01-21T13:33:48.471Z,32.27
2019-01-21T13:36:23.711Z,35.00
2019-01-21T13:39:02.097Z,33.87
2019-01-21T13:41:34.690Z,33.20
2019-01-21T13:44:23.804Z,31.97
2019-01-21T13:47:18.943Z,35.87
2019-01-21T13:49:54.212Z,34.53
2019-01-21T13:52:35.447Z,34.87
2019-01-21T13:55:19.799Z,35.77
2019-01-21T13:58:05.070Z,37.20
2019-01-21T14:00:43.382Z,37.20
2019-01-21T14:03:21.518Z,36.73
2019-01-21T14:06:21.240Z,37.27
2019-01-21T14:09:10.164Z,34.57
2019-01-21T14:11:57.214Z,34.57
2019-01-21T14:14:32.549Z,35.23
2019-01-21T14:17:14.083Z,36.90
2019-01-21T14:19:46.619Z,36.03
2019-01-21T14:22:30.887Z,35.10
2019-01-21T14:25:19.699Z,37.30
2019-01-21T14:27:57.878Z,36.60
2019-01-21T14:31:00.149Z,36.43
2019-01-21T14:33:35.495Z,35.17
2019-01-21T14:36:28.779Z,39.17
2019-01-21T14:39:17.700Z,36.87
2019-01-21T14:41:56.077Z,36.77
2019-01-21T14:44:28.637Z,34.87
2019-01-21T14:47:09.754Z,36.30
2019-01-21T14:49:57.208Z,36.93
2019-01-21T14:53:04.206Z,36.10
2019-01-21T14:55:45.446Z,37.83
2019-01-21T14:58:18.327Z,36.77
2019-01-21T15:01:02.758Z,37.17
2019-01-21T15:03:43.871Z,37.93
2019-01-21T15:06:19.148Z,35.47
2019-01-21T15:09:10.936Z,36.47
2019-01-21T15:11:49.548Z,37.10
2019-01-21T15:14:24.845Z,36.47
2019-01-21T15:17:09.176Z,35.17
2019-01-21T15:19:40.437Z,34.90
2019-01-21T15:22:12.951Z,34.90
2019-01-21T15:25:20.112Z,35.30
2019-01-21T15:28:22.904Z,34.23
2019-01-21T15:31:10.426Z,35.27
2019-01-21T15:34:00.797Z,34.63
2019-01-21T15:36:54.297Z,31.37
2019-01-21T15:39:38.740Z,32.73
2019-01-21T15:42:30.290Z,33.80
2019-01-21T15:45:20.312Z,30.90
2019-01-21T15:48:11.858Z,33.10
2019-01-21T15:50:56.256Z,32.50
2019-01-21T15:53:31.483Z,30.53
2019-01-21T15:56:04.038Z,31.43
2019-01-21T15:58:45.272Z,29.80
2019-01-21T16:01:29.394Z,29.00
2019-01-21T16:04:01.937Z,29.53
2019-01-21T16:06:42.992Z,29.37
2019-01-21T16:09:31.866Z,28.40
2019-01-21T16:12:06.997Z,28.53
2019-01-21T16:14:42.152Z,26.63
2019-01-21T16:17:17.320Z,25.97
2019-01-21T16:19:46.729Z,26.53
2019-01-21T16:22:43.310Z,26.37
2019-01-21T16:25:18.579Z,26.80
2019-01-21T16:28:02.853Z,27.57
2019-01-21T16:30:56.260Z,27.30
2019-01-21T16:33:43.482Z,29.07
2019-01-21T16:36:36.672Z,28.90
2019-01-21T16:39:09.138Z,31.60
2019-01-21T16:41:44.353Z,31.00
2019-01-21T16:44:13.940Z,29.30
2019-01-21T16:46:43.321Z,29.97
2019-01-21T16:49:12.793Z,30.63
2019-01-21T16:51:42.257Z,30.57
2019-01-21T16:54:12.794Z,31.97
2019-01-21T16:56:42.278Z,32.77
2019-01-21T16:59:11.872Z,32.67
2019-01-21T17:01:41.403Z,31.63
2019-01-21T17:04:11.009Z,30.87
2019-01-21T17:06:40.594Z,32.40
2019-01-21T17:09:10.747Z,31.67
2019-01-21T17:11:40.230Z,32.07
2019-01-21T17:14:11.074Z,30.60
2019-01-21T17:16:40.587Z,32.90
2019-01-21T17:19:10.054Z,32.67
2019-01-21T17:21:39.725Z,33.93
2019-01-21T17:24:09.182Z,34.07
2019-01-21T17:26:38.668Z,37.67
2019-01-21T17:29:08.141Z,36.33
2019-01-21T17:31:37.622Z,36.10
2019-01-21T17:34:07.159Z,38.10
2019-01-21T17:36:36.822Z,37.57
2019-01-21T17:39:07.736Z,36.97
2019-01-21T17:41:37.198Z,38.80
2019-01-21T17:44:06.621Z,37.43
2019-01-21T17:46:36.102Z,36.10
2019-01-21T17:49:05.547Z,36.87
2019-01-21T17:51:35.422Z,38.27
2019-01-21T17:54:05.338Z,35.50
2019-01-21T17:56:34.837Z,37.73
2019-01-21T17:59:04.474Z,37.70
2019-01-21T18:01:39.242Z,37.63
2019-01-21T18:04:05.286Z,38.33
2019-01-21T18:06:34.736Z,39.07
2019-01-21T18:09:07.437Z,38.57
2019-01-21T18:11:41.254Z,37.57
2019-01-21T18:14:08.088Z,38.37
2019-01-21T18:16:37.570Z,39.03
2019-01-21T18:19:08.075Z,39.40
2019-01-21T18:21:40.181Z,38.73
2019-01-21T18:24:08.770Z,39.27
2019-01-21T18:26:38.248Z,40.47
2019-01-21T18:29:07.703Z,39.20
2019-01-21T18:31:37.202Z,39.07
2019-01-21T18:34:06.644Z,39.90
2019-01-21T18:36:36.259Z,41.30
2019-01-21T18:39:07.791Z,41.53
2019-01-21T18:41:37.213Z,41.10
2019-01-21T18:44:07.553Z,39.97
2019-01-21T18:46:37.162Z,41.77
2019-01-21T18:49:06.698Z,41.87
2019-01-21T18:51:36.194Z,38.30
2019-01-21T18:54:05.770Z,41.67
2019-01-21T18:56:35.346Z,40.67
2019-01-21T18:59:04.924Z,41.37
2019-01-21T19:01:34.400Z,42.33
2019-01-21T19:04:03.854Z,43.60
2019-01-21T19:06:33.374Z,42.73
2019-01-21T19:09:02.837Z,43.20
2019-01-21T19:11:32.320Z,41.67
2019-01-21T19:14:01.824Z,42.83
2019-01-21T19:16:31.330Z,41.33
2019-01-21T19:19:00.838Z,42.13
2019-01-21T19:21:30.256Z,43.47
2019-01-21T19:23:59.813Z,41.20
2019-01-21T19:26:29.282Z,43.97
2019-01-21T19:28:58.752Z,42.20
2019-01-21T19:31:28.339Z,43.70
2019-01-21T19:33:57.727Z,43.67
2019-01-21T19:36:27.436Z,44.80
2019-01-21T19:38:56.946Z,43.80
2019-01-21T19:41:26.332Z,44.30
2019-01-21T19:43:55.803Z,45.03
2019-01-21T19:46:25.252Z,44.57
2019-01-21T19:48:54.778Z,46.43
2019-01-21T19:51:24.238Z,44.87
2019-01-21T19:53:53.716Z,43.50
2019-01-21T19:56:23.280Z,44.57
2019-01-21T19:58:52.780Z,45.53
2019-01-21T20:01:22.242Z,45.80
2019-01-21T20:03:51.700Z,45.03
2019-01-21T20:06:21.129Z,44.80
2019-01-21T20:08:50.516Z,45.07
2019-01-21T20:11:20.022Z,44.77
2019-01-21T20:13:49.510Z,44.53
2019-01-21T20:16:19.084Z,45.13
2019-01-21T20:18:48.597Z,46.17
2019-01-21T20:21:18.022Z,46.47
2019-01-21T20:23:47.558Z,46.33
2019-01-21T20:26:17.093Z,45.40
2019-01-21T20:28:46.647Z,46.77
2019-01-21T20:31:16.094Z,49.33
2019-01-21T20:33:51.981Z,46.77
2019-01-21T20:36:16.604Z,47.93
2019-01-21T20:38:46.029Z,48.93
2019-01-21T20:41:15.427Z,49.47
2019-01-21T20:43:44.934Z,49.47
2019-01-21T20:46:14.483Z,49.70
2019-01-21T20:48:43.987Z,51.47
2019-01-21T20:51:13.498Z,52.10
2019-01-21T20:53:42.985Z,52.00
2019-01-21T20:56:12.476Z,52.57
2019-01-21T20:58:41.944Z,52.23
2019-01-21T21:01:11.430Z,52.83
2019-01-21T21:03:41.415Z,51.40
2019-01-21T21:06:10.814Z,52.83
2019-01-21T21:08:40.384Z,52.67
2019-01-21T21:11:09.803Z,52.17
2019-01-21T21:13:39.275Z,51.97
2019-01-21T21:16:08.781Z,52.00
2019-01-21T21:18:38.263Z,51.30
2019-01-21T21:21:07.754Z,53.30
2019-01-21T21:23:37.563Z,52.07
2019-01-21T21:26:06.973Z,53.57
2019-01-21T21:28:36.647Z,52.13
2019-01-21T21:31:06.195Z,51.80
2019-01-21T21:33:35.670Z,55.53
2019-01-21T21:36:05.257Z,54.00
2019-01-21T21:38:34.900Z,54.60
2019-01-21T21:41:04.729Z,54.13
2019-01-21T21:43:34.191Z,53.33
2019-01-21T21:46:03.789Z,52.77
2019-01-21T21:48:33.289Z,55.03
2019-01-21T21:51:03.197Z,51.93
2019-01-21T21:53:32.863Z,53.10
2019-01-21T21:56:02.356Z,54.07
2019-01-21T21:58:31.815Z,52.53
2019-01-21T22:01:01.293Z,51.67
2019-01-21T22:03:30.781Z,52.73
2019-01-21T22:06:00.572Z,53.00
2019-01-21T22:08:29.977Z,53.40
2019-01-21T22:10:59.418Z,53.20
2019-01-21T22:13:28.957Z,52.17
2019-01-21T22:15:58.461Z,53.47
2019-01-21T22:18:28.052Z,53.33
2019-01-21T22:20:57.517Z,56.47
2019-01-21T22:23:26.997Z,52.73
2019-01-21T22:25:56.596Z,54.03
2019-01-21T22:28:27.667Z,53.87
2019-01-21T22:30:57.501Z,55.73
2019-01-21T22:33:26.949Z,54.67
2019-01-21T22:35:56.367Z,53.50
2019-01-21T22:38:25.875Z,56.13
2019-01-21T22:40:55.437Z,54.97
2019-01-21T22:43:25.241Z,55.30
2019-01-21T22:45:54.773Z,54.63
2019-01-21T22:48:24.176Z,54.43
2019-01-21T22:50:53.757Z,56.10
2019-01-21T22:53:23.223Z,54.50
2019-01-21T22:55:52.839Z,58.47
2019-01-21T22:58:22.307Z,56.43
2019-01-21T23:00:54.885Z,57.10
2019-01-21T23:03:24.493Z,56.07
2019-01-21T23:05:54.013Z,56.57
2019-01-21T23:08:24.481Z,55.33
2019-01-21T23:10:53.912Z,57.73
2019-01-21T23:13:23.417Z,59.97
2019-01-21T23:15:52.949Z,58.77
2019-01-21T23:18:22.403Z,58.83
2019-01-21T23:20:52.267Z,58.07
2019-01-21T23:23:21.721Z,60.23
2019-01-21T23:25:51.228Z,57.70
2019-01-21T23:28:20.677Z,57.57
2019-01-21T23:30:51.119Z,59.83
2019-01-21T23:33:20.845Z,58.27
2019-01-21T23:35:50.355Z,57.13
2019-01-21T23:38:19.810Z,60.27
2019-01-21T23:40:49.233Z,58.20
2019-01-21T23:43:18.903Z,57.37
2019-01-21T23:45:48.423Z,59.77
2019-01-21T23:48:18.090Z,55.33
2019-01-21T23:50:47.627Z,58.30
2019-01-21T23:53:17.140Z,57.73
2019-01-21T23:55:46.590Z,57.87
2019-01-21T23:58:16.061Z,58.80
